Terminal Aerodrome Forecast
Issued by NWS

Home | Current Version | Previous Version | Text Only | Print | Product List | Glossary On
Versions: 1 2 3 4 5 6 7 8 9 10 11 12 13 14 15 16 17 18
676
FTUS45 KRIW 122331
TAFJAC
TAF
KJAC 122331Z 1300/1324 VRB05KT P6SM SCT090 BKN150
     FM130500 36006KT P6SM FEW080 BKN250
     FM130900 VRB04KT 2SM BR SCT003 OVC010
     FM131600 19010G17KT P6SM SCT025 BKN070
     FM131900 20017G25KT 5SM -SHSN SCT015 OVC035
      AMD LTD TO CLD VIS AND WIND=

USA.gov is the U.S. government's official web portal to all federal, state and local government web resources and services.